Ocean Tomo — 3FID9 — position and weather

sailwx.info

Track history (hours):
 
Tides and Currents Weather Stations Pressure Air Temp Water Temp Dewpoint Dewpoint Depression Visibility Wind Speed Wind Dir Waves Ship Positions

Ocean Tomo

Last reported at 2015-Feb-13 12:26 UTC. Time now 2015-Mar-05 16:06 UTC.
Position N 22°07' E 114°39'.
Warning: this ship's position is 20 days out of date.

Length 190 m; draft 12 m.

Type: Ship. MMSI: 372951000.

Date/timePositionNaut miles runAvg speedWind from/ knotsBaromVisibWave heightAir tempDewpointWater temp
2015-Feb-13 12:26N 22°07' E 114°39'1111.9
2015-Feb-13 11:32N 22°08' E 114°27'17 1.4
2015-Feb-12 23:33N 22°09' E 114°09'8 7.0
2015-Feb-12 22:27N 22°09' E 114°17'7 8.3
2015-Feb-12 21:33N 22°08' E 114°25'97 7.8
2015-Feb-12 09:12N 22°24' E 116°09'3411.7
2015-Feb-12 06:20N 22°42' E 116°39'1112.1
2015-Feb-12 05:27N 22°48' E 116°49'1111.9
2015-Feb-12 04:33N 22°53' E 116°59'1212.3
2015-Feb-12 03:33N 22°60' E 117°10'4212.6
2015-Feb-12 00:15N 23°24' E 117°47'1213.0
2015-Feb-11 23:21N 23°31' E 117°58'1113.3
2015-Feb-11 22:33N 23°37' E 118°07'1313.3
2015-Feb-11 21:33N 23°45' E 118°19'1413.5
2015-Feb-11 20:33N 23°53' E 118°31'1212.1
2015-Feb-11 19:32N 23°60' E 118°42'1211.8
2015-Feb-11 18:33N 24°07' E 118°51'1411.6
2015-Feb-11 17:19N 24°14' E 119°05'911.4
2015-Feb-11 16:33N 24°21' E 119°12'1111.4
2015-Feb-11 15:33N 24°28' E 119°22'1110.6
2015-Feb-11 14:33N 24°32' E 119°32'1110.7
2015-Feb-11 13:30N 24°37' E 119°43'1111.6
2015-Feb-11 12:34N 24°46' E 119°51'1211.6
2015-Feb-11 11:33N 24°53' E 120°01'1212.1
2015-Feb-11 10:32N 25°00' E 120°12'  
Track history (hours):
 
Tides and Currents Weather Stations Pressure Air Temp Water Temp Dewpoint Dewpoint Depression Visibility Wind Speed Wind Dir Waves Ship Positions

Ocean Tomo

Last reported at 2015-Feb-13 12:26 UTC. Time now 2015-Mar-05 16:06 UTC.
Position N 22°07' E 114°39'.
Warning: this ship's position is 20 days out of date.

Length 190 m; draft 12 m.

Type: Ship. MMSI: 372951000.

Date/timePositionNaut miles runAvg speedWind from/ knotsBaromVisibWave heightAir tempDewpointWater temp
2015-Feb-13 12:26N 22°07' E 114°39'1111.9
2015-Feb-13 11:32N 22°08' E 114°27'17 1.4
2015-Feb-12 23:33N 22°09' E 114°09'8 7.0
2015-Feb-12 22:27N 22°09' E 114°17'7 8.3
2015-Feb-12 21:33N 22°08' E 114°25'97 7.8
2015-Feb-12 09:12N 22°24' E 116°09'3411.7
2015-Feb-12 06:20N 22°42' E 116°39'1112.1
2015-Feb-12 05:27N 22°48' E 116°49'1111.9
2015-Feb-12 04:33N 22°53' E 116°59'1212.3
2015-Feb-12 03:33N 22°60' E 117°10'4212.6
2015-Feb-12 00:15N 23°24' E 117°47'1213.0
2015-Feb-11 23:21N 23°31' E 117°58'1113.3
2015-Feb-11 22:33N 23°37' E 118°07'1313.3
2015-Feb-11 21:33N 23°45' E 118°19'1413.5
2015-Feb-11 20:33N 23°53' E 118°31'1212.1
2015-Feb-11 19:32N 23°60' E 118°42'1211.8
2015-Feb-11 18:33N 24°07' E 118°51'1411.6
2015-Feb-11 17:19N 24°14' E 119°05'911.4
2015-Feb-11 16:33N 24°21' E 119°12'1111.4
2015-Feb-11 15:33N 24°28' E 119°22'1110.6
2015-Feb-11 14:33N 24°32' E 119°32'1110.7
2015-Feb-11 13:30N 24°37' E 119°43'1111.6
2015-Feb-11 12:34N 24°46' E 119°51'1211.6
2015-Feb-11 11:33N 24°53' E 120°01'1212.1
2015-Feb-11 10:32N 25°00' E 120°12'  

Dump ship's entire track history